createdAt,value
2023-03-25T09:18:01.788Z,9.618835449
2023-03-25T09:19:02.760Z,9.699401855
2023-03-25T09:20:33.667Z,9.729614258
2023-03-25T09:21:34.180Z,9.729614258
2023-03-25T09:22:34.662Z,9.769897461
2023-03-25T09:23:35.283Z,9.769897461
2023-03-25T09:24:35.905Z,9.729614258
2023-03-25T09:25:36.406Z,9.709472656
2023-03-25T09:26:36.955Z,9.709472656
2023-03-25T09:27:37.432Z,9.699401855
2023-03-25T09:28:37.899Z,9.669189453
2023-03-25T09:29:39.003Z,9.62890625
2023-03-25T09:30:39.677Z,9.649047852
2023-03-25T09:31:40.237Z,9.618835449
2023-03-25T09:32:41.308Z,9.618835449
2023-03-25T09:33:42.077Z,9.649047852
2023-03-25T09:34:42.633Z,9.649047852
2023-03-25T09:35:43.240Z,9.649047852
2023-03-25T09:36:44.627Z,9.548339844
2023-03-25T09:37:45.126Z,9.578552246
2023-03-25T09:38:45.641Z,9.558410645
2023-03-25T09:39:46.981Z,9.588623047
2023-03-25T09:40:47.423Z,9.649047852
2023-03-25T09:41:47.928Z,9.679260254
2023-03-25T09:42:49.246Z,9.709472656
2023-03-25T09:43:49.738Z,9.729614258
2023-03-25T09:44:50.136Z,9.699401855
2023-03-25T09:45:50.781Z,9.679260254
2023-03-25T09:46:51.071Z,9.588623047
2023-03-25T09:47:51.597Z,9.558410645
2023-03-25T09:48:52.154Z,9.558410645
2023-03-25T09:49:53.482Z,9.578552246
2023-03-25T09:50:53.921Z,9.618835449
2023-03-25T09:51:54.410Z,9.62890625
2023-03-25T09:52:54.835Z,9.669189453
2023-03-25T09:53:55.324Z,9.709472656
2023-03-25T09:54:55.760Z,9.769897461
2023-03-25T09:55:56.188Z,9.860534668
2023-03-25T09:56:56.663Z,9.850463867
2023-03-25T09:57:57.181Z,9.810180664
2023-03-25T09:58:57.614Z,9.810180664
2023-03-25T09:59:58.992Z,9.89074707
2023-03-25T10:00:59.453Z,9.931030273
2023-03-25T10:01:59.851Z,9.961242676
2023-03-25T10:03:00.997Z,9.981384277
2023-03-25T10:04:02.075Z,10.07202148
2023-03-25T10:05:32.986Z,10.02166748
2023-03-25T10:06:33.467Z,9.991455078
2023-03-25T10:07:33.899Z,9.931030273
2023-03-25T10:08:34.342Z,9.951171875
2023-03-25T10:09:35.819Z,10.02166748
2023-03-25T10:10:36.291Z,9.991455078
2023-03-25T10:11:36.758Z,9.981384277
2023-03-25T10:12:37.204Z,9.961242676
2023-03-25T10:13:37.629Z,9.951171875
2023-03-25T10:14:38.189Z,9.951171875
2023-03-25T10:15:38.689Z,9.931030273
2023-03-25T10:16:39.213Z,9.920959473
2023-03-25T10:17:39.730Z,9.88067627
2023-03-25T10:18:40.171Z,9.88067627
2023-03-25T10:19:40.679Z,9.88067627
2023-03-25T10:20:41.130Z,9.89074707
2023-03-25T10:21:41.621Z,9.910888672
2023-03-25T10:22:42.981Z,9.931030273
2023-03-25T10:23:43.436Z,9.931030273
2023-03-25T10:24:43.869Z,9.991455078
2023-03-25T10:25:44.357Z,10.07202148
2023-03-25T10:26:44.830Z,10.02166748
2023-03-25T10:27:45.268Z,10.04180908
2023-03-25T10:28:45.759Z,10.10223389
2023-03-25T10:29:46.800Z,10.14251709
2023-03-25T10:30:47.240Z,10.16265869
2023-03-25T10:31:47.765Z,10.11230469
2023-03-25T10:32:48.840Z,10.07202148
2023-03-25T10:33:49.240Z,10.02166748
2023-03-25T10:34:49.668Z,10.07202148
2023-03-25T10:35:50.462Z,10.11230469
2023-03-25T10:36:50.642Z,10.09216309
2023-03-25T10:37:51.144Z,10.11230469
2023-03-25T10:38:51.592Z,10.09216309
2023-03-25T10:39:52.784Z,10.13244629
2023-03-25T10:40:53.369Z,10.14251709
2023-03-25T10:41:53.639Z,10.09216309
2023-03-25T10:42:54.116Z,10.06195068
2023-03-25T10:43:54.606Z,10.07202148
2023-03-25T10:44:55.100Z,10.13244629
2023-03-25T10:45:55.627Z,10.14251709
2023-03-25T10:46:55.986Z,10.16265869
2023-03-25T10:47:56.482Z,10.09216309
2023-03-25T10:48:56.932Z,10.13244629
2023-03-25T10:49:58.316Z,10.09216309
2023-03-25T10:50:58.728Z,10.09216309
2023-03-25T10:51:59.278Z,9.981384277
2023-03-25T10:52:59.734Z,9.931030273
2023-03-25T10:54:00.220Z,9.920959473
2023-03-25T10:55:00.715Z,9.88067627
2023-03-25T10:56:01.065Z,9.779968262
2023-03-25T10:57:01.996Z,9.810180664
2023-03-25T10:58:32.981Z,9.739685059
2023-03-25T10:59:34.270Z,9.709472656
2023-03-25T11:00:34.865Z,9.598693848
2023-03-25T11:01:35.239Z,9.598693848
2023-03-25T11:02:36.332Z,9.669189453
2023-03-25T11:03:37.574Z,9.679260254
2023-03-25T11:04:38.091Z,9.729614258
2023-03-25T11:05:38.657Z,9.729614258
2023-03-25T11:06:39.014Z,9.669189453
2023-03-25T11:07:39.511Z,9.62890625
2023-03-25T11:08:39.936Z,9.598693848
2023-03-25T11:09:41.265Z,9.558410645
2023-03-25T11:10:41.706Z,9.558410645
2023-03-25T11:11:42.147Z,9.528198242
2023-03-25T11:12:43.475Z,9.548339844
2023-03-25T11:13:42.996Z,9.62890625
2023-03-25T11:14:43.463Z,9.709472656
2023-03-25T11:15:44.007Z,9.709472656
2023-03-25T11:16:44.454Z,9.729614258
2023-03-25T11:17:44.819Z,9.679260254
2023-03-25T11:18:45.217Z,9.649047852
2023-03-25T11:19:46.253Z,9.618835449
2023-03-25T11:20:46.766Z,9.649047852
2023-03-25T11:21:47.353Z,9.669189453
2023-03-25T11:22:47.813Z,9.729614258
2023-03-25T11:23:48.269Z,9.779968262
2023-03-25T11:24:48.701Z,9.830322266
2023-03-25T11:25:49.513Z,9.769897461
2023-03-25T11:26:49.679Z,9.709472656
2023-03-25T11:27:50.149Z,9.679260254
2023-03-25T11:28:50.558Z,9.62890625
2023-03-25T11:29:51.750Z,9.62890625
2023-03-25T11:30:52.232Z,9.649047852
2023-03-25T11:31:52.655Z,9.679260254
2023-03-25T11:32:54.029Z,9.679260254
2023-03-25T11:33:54.951Z,9.729614258
2023-03-25T11:34:55.430Z,9.739685059
2023-03-25T11:35:55.874Z,9.699401855
2023-03-25T11:36:56.386Z,9.649047852
2023-03-25T11:37:56.891Z,9.669189453
2023-03-25T11:38:57.444Z,9.649047852
2023-03-25T11:39:58.733Z,9.558410645
2023-03-25T11:40:59.213Z,9.548339844
2023-03-25T11:41:59.687Z,9.558410645
2023-03-25T11:43:00.155Z,9.528198242
2023-03-25T11:44:00.578Z,9.558410645
2023-03-25T11:45:32.536Z,9.558410645
2023-03-25T11:46:32.399Z,9.578552246
2023-03-25T11:47:32.868Z,9.598693848
2023-03-25T11:48:33.324Z,9.588623047
2023-03-25T11:49:33.793Z,9.548339844
2023-03-25T11:50:34.946Z,9.518127441
2023-03-25T11:51:35.374Z,9.477844238
2023-03-25T11:52:35.851Z,9.437561035
2023-03-25T11:53:36.295Z,9.437561035
2023-03-25T11:54:36.750Z,9.37713623
2023-03-25T11:55:37.153Z,9.397277832
2023-03-25T11:56:37.617Z,9.397277832
2023-03-25T11:57:38.064Z,9.417419434
2023-03-25T11:58:38.506Z,9.477844238
2023-03-25T11:59:39.011Z,9.487915039
2023-03-25T12:00:40.464Z,9.528198242
2023-03-25T12:01:40.912Z,9.548339844
2023-03-25T12:02:42.299Z,9.558410645
2023-03-25T12:03:43.366Z,9.528198242
2023-03-25T12:04:44.254Z,9.477844238
2023-03-25T12:05:44.718Z,9.487915039
2023-03-25T12:06:45.245Z,9.558410645
2023-03-25T12:07:45.613Z,9.578552246
2023-03-25T12:08:46.120Z,9.649047852
2023-03-25T12:09:46.570Z,9.709472656
2023-03-25T12:10:48.003Z,9.779968262
2023-03-25T12:11:48.607Z,9.830322266
2023-03-25T12:12:48.944Z,9.88067627
2023-03-25T12:13:49.396Z,9.931030273
2023-03-25T12:14:49.937Z,10.04180908
2023-03-25T12:15:50.623Z,10.14251709
2023-03-25T12:16:50.774Z,10.20294189
2023-03-25T12:17:51.325Z,10.2230835
2023-03-25T12:18:51.684Z,10.2230835
2023-03-25T12:19:52.213Z,10.18280029
2023-03-25T12:20:53.462Z,10.20294189
2023-03-25T12:21:53.931Z,10.2432251
2023-03-25T12:22:54.422Z,10.2432251
2023-03-25T12:23:54.797Z,10.2835083
2023-03-25T12:24:55.270Z,10.3237915
2023-03-25T12:25:55.727Z,10.36407471
2023-03-25T12:26:56.220Z,10.42449951
2023-03-25T12:27:56.693Z,10.46478271
2023-03-25T12:28:57.106Z,10.47485352
2023-03-25T12:29:57.690Z,10.49499512
2023-03-25T12:30:58.998Z,10.46478271
2023-03-25T12:31:59.481Z,10.53527832
2023-03-25T12:33:31.767Z,10.54534912
2023-03-25T12:34:32.471Z,10.57556152
2023-03-25T12:35:32.995Z,10.67626953
2023-03-25T12:36:33.394Z,10.69641113
2023-03-25T12:37:34.486Z,10.79711914
2023-03-25T12:38:34.938Z,10.87768555
2023-03-25T12:39:42.807Z,10.87768555
2023-03-25T12:40:36.747Z,10.90789795
2023-03-25T12:41:37.267Z,10.94818115
2023-03-25T12:42:37.699Z,10.94818115
2023-03-25T12:43:38.997Z,11.00860596
2023-03-25T12:44:39.483Z,11.07910156
2023-03-25T12:45:39.936Z,11.15966797
2023-03-25T12:46:40.413Z,11.23016357
2023-03-25T12:47:40.923Z,11.31072998
2023-03-25T12:48:41.336Z,11.44165039
2023-03-25T12:49:41.775Z,11.5625
2023-03-25T12:50:42.750Z,11.67327881
2023-03-25T12:51:43.245Z,11.70349121
2023-03-25T12:52:43.708Z,11.77398682
2023-03-25T12:53:44.171Z,11.82434082
2023-03-25T12:54:44.682Z,11.78405762
2023-03-25T12:55:45.096Z,11.74377441
2023-03-25T12:56:45.549Z,11.64306641
2023-03-25T12:57:45.970Z,11.63299561
2023-03-25T12:58:46.428Z,11.5625
2023-03-25T12:59:47.746Z,11.5725708
2023-03-25T13:00:48.887Z,11.5322876
2023-03-25T13:01:49.836Z,11.46179199
2023-03-25T13:02:50.718Z,11.42150879
2023-03-25T13:03:51.775Z,11.44165039
2023-03-25T13:04:52.195Z,11.42150879
2023-03-25T13:05:52.639Z,11.41143799
2023-03-25T13:06:53.035Z,11.33087158
2023-03-25T13:07:54.313Z,11.27044678
2023-03-25T13:08:54.801Z,11.27044678
2023-03-25T13:09:55.272Z,11.28051758
2023-03-25T13:10:56.249Z,11.23016357
2023-03-25T13:11:56.674Z,11.16973877
2023-03-25T13:12:57.111Z,11.18988037
2023-03-25T13:13:57.609Z,11.21002197
2023-03-25T13:14:58.063Z,11.23016357
2023-03-25T13:15:59.477Z,11.28051758
2023-03-25T13:17:30.500Z,11.31072998
2023-03-25T13:18:31.670Z,11.35101318
2023-03-25T13:19:32.577Z,11.38122559
2023-03-25T13:20:33.799Z,11.39129639
2023-03-25T13:21:34.290Z,11.41143799
2023-03-25T13:22:34.814Z,11.44165039
2023-03-25T13:23:35.354Z,11.46179199
2023-03-25T13:24:35.850Z,11.512146
2023-03-25T13:25:36.468Z,11.5725708
2023-03-25T13:26:36.948Z,11.67327881
2023-03-25T13:27:37.999Z,11.74377441
2023-03-25T13:28:38.547Z,11.79412842
2023-03-25T13:29:38.957Z,12.03582764
2023-03-25T13:30:40.248Z,12.30773926
2023-03-25T13:31:40.724Z,12.45880127
2023-03-25T13:32:41.771Z,12.60986328
2023-03-25T13:33:42.755Z,12.74078369
2023-03-25T13:34:43.214Z,12.8515625
2023-03-25T13:35:43.680Z,13.04290771
2023-03-25T13:36:44.960Z,13.22418213
2023-03-25T13:37:45.367Z,13.49609375
2023-03-25T13:38:45.805Z,13.68743896
2023-03-25T13:39:46.792Z,13.61694336
2023-03-25T13:40:48.376Z,13.54644775
2023-03-25T13:41:49.737Z,13.61694336
2023-03-25T13:42:49.206Z,13.83850098
2023-03-25T13:43:50.464Z,13.72772217
2023-03-25T13:44:51.038Z,13.56658936
2023-03-25T13:45:51.418Z,13.61694336
2023-03-25T13:46:52.756Z,13.78814697
2023-03-25T13:47:53.235Z,13.65722656
2023-03-25T13:48:53.613Z,13.61694336
2023-03-25T13:49:54.128Z,13.50616455
2023-03-25T13:50:55.320Z,13.58673096
2023-03-25T13:51:55.893Z,13.80828857
2023-03-25T13:52:56.382Z,13.97949219
2023-03-25T13:53:56.861Z,13.82843018
2023-03-25T13:54:57.334Z,13.67736816
2023-03-25T13:55:57.754Z,13.46588135
2023-03-25T13:56:58.235Z,13.29467773
2023-03-25T13:57:58.653Z,13.21411133
2023-03-25T13:58:59.054Z,13.04290771
2023-03-25T14:00:29.990Z,13.04290771
2023-03-25T14:01:31.039Z,13.19396973
2023-03-25T14:02:31.474Z,12.96234131
2023-03-25T14:03:32.520Z,12.8012085
2023-03-25T14:04:33.455Z,12.8012085
2023-03-25T14:05:33.942Z,12.74078369
2023-03-25T14:06:34.329Z,12.69042969
2023-03-25T14:07:34.920Z,12.60986328
2023-03-25T14:08:35.401Z,12.71057129
2023-03-25T14:09:35.833Z,12.8012085
2023-03-25T14:10:36.382Z,13.22418213
2023-03-25T14:11:37.462Z,13.09326172
2023-03-25T14:12:37.921Z,13.60687256
2023-03-25T14:13:38.378Z,13.46588135
2023-03-25T14:14:38.941Z,13.49609375
2023-03-25T14:15:39.627Z,13.37524414
2023-03-25T14:16:40.047Z,13.42559814
2023-03-25T14:17:40.596Z,14.190979
2023-03-25T14:18:41.011Z,14.77508545
2023-03-25T14:19:41.452Z,14.84558105
2023-03-25T14:20:42.014Z,14.72473145
2023-03-25T14:21:43.029Z,14.36218262
2023-03-25T14:22:44.201Z,14.0802002
2023-03-25T14:23:44.628Z,13.89892578
2023-03-25T14:24:44.420Z,13.60687256
2023-03-25T14:25:44.908Z,13.29467773
2023-03-25T14:26:45.356Z,13.16375732
2023-03-25T14:27:45.806Z,12.96234131
2023-03-25T14:28:46.242Z,12.74078369
2023-03-25T14:29:46.661Z,12.51922607
2023-03-25T14:30:47.189Z,12.32788086
2023-03-25T14:31:47.568Z,12.22717285
2023-03-25T14:32:48.050Z,12.10632324
2023-03-25T14:33:48.527Z,12.06604004
2023-03-25T14:34:48.990Z,11.99554443
2023-03-25T14:35:49.557Z,11.78405762
2023-03-25T14:36:49.851Z,11.69342041
2023-03-25T14:37:50.415Z,11.66320801
2023-03-25T14:38:50.853Z,11.5927124
2023-03-25T14:39:51.336Z,11.5423584
2023-03-25T14:41:02.690Z,11.6229248
2023-03-25T14:41:52.228Z,11.69342041
2023-03-25T14:42:52.680Z,11.87469482
2023-03-25T14:43:53.127Z,12.15667725
2023-03-25T14:44:53.564Z,12.53936768
2023-03-25T14:45:53.984Z,13.22418213
2023-03-25T14:46:54.496Z,13.78814697
2023-03-25T14:47:54.988Z,13.97949219
2023-03-25T14:48:55.439Z,14.21112061
2023-03-25T14:49:55.931Z,14.52331543
2023-03-25T14:50:56.490Z,14.0802002
2023-03-25T14:51:56.866Z,13.83850098
2023-03-25T14:52:57.288Z,13.85864258
2023-03-25T14:53:57.778Z,13.74786377
2023-03-25T14:54:58.351Z,13.21411133
2023-03-25T14:56:29.370Z,12.96234131
2023-03-25T14:57:29.748Z,12.77099609
2023-03-25T14:58:30.171Z,12.51922607
2023-03-25T14:59:30.646Z,12.43865967
2023-03-25T15:00:31.186Z,12.36816406
2023-03-25T15:01:31.630Z,12.28759766
2023-03-25T15:02:32.073Z,12.20703125
2023-03-25T15:03:32.687Z,12.06604004
2023-03-25T15:04:33.109Z,12.06604004
2023-03-25T15:05:33.612Z,12.07611084
2023-03-25T15:06:34.055Z,12.06604004
2023-03-25T15:07:34.486Z,12.03582764
2023-03-25T15:08:34.979Z,12.06604004
2023-03-25T15:09:35.416Z,12.07611084
2023-03-25T15:10:35.868Z,12.10632324
2023-03-25T15:11:36.331Z,12.15667725
2023-03-25T15:12:36.729Z,12.15667725
2023-03-25T15:13:37.191Z,12.12646484
2023-03-25T15:14:37.761Z,12.10632324
2023-03-25T15:15:38.238Z,12.04589844
2023-03-25T15:16:38.889Z,12.03582764
2023-03-25T15:17:39.223Z,12.03582764
2023-03-25T15:18:39.705Z,12.04589844
2023-03-25T15:19:40.395Z,12.43865967
2023-03-25T15:20:40.919Z,12.66021729
2023-03-25T15:21:41.365Z,12.54943848
2023-03-25T15:22:41.778Z,12.43865967
2023-03-25T15:23:42.257Z,12.39837646
2023-03-25T15:24:42.712Z,12.36816406
2023-03-25T15:25:43.293Z,12.32788086
2023-03-25T15:26:43.754Z,12.36816406
2023-03-25T15:27:44.296Z,12.40844727
2023-03-25T15:28:44.747Z,12.8918457
2023-03-25T15:29:45.232Z,13.71765137
2023-03-25T15:30:45.667Z,14.53338623
2023-03-25T15:31:46.238Z,15.19805908
2023-03-25T15:32:46.679Z,15.68145752
2023-03-25T15:33:47.124Z,16.03393555
2023-03-25T15:34:47.572Z,16.36627197
2023-03-25T15:35:48.028Z,15.99365234
2023-03-25T15:36:48.525Z,15.51025391
2023-03-25T15:37:48.953Z,15.70159912
2023-03-25T15:38:49.390Z,15.3994751
2023-03-25T15:39:49.874Z,15.06713867
2023-03-25T15:40:50.524Z,14.82543945
2023-03-25T15:41:50.884Z,14.49310303
2023-03-25T15:42:51.352Z,14.31182861
2023-03-25T15:44:00.558Z,13.98956299
2023-03-25T15:44:52.214Z,13.71765137
2023-03-25T15:45:52.643Z,13.46588135
2023-03-25T15:46:53.114Z,13.29467773
2023-03-25T15:47:53.613Z,13.17382813
2023-03-25T15:48:54.022Z,13.09326172
2023-03-25T15:49:54.422Z,13.01269531
2023-03-25T15:50:54.846Z,12.96234131
2023-03-25T15:51:55.326Z,12.95227051
2023-03-25T15:52:55.773Z,12.8112793
2023-03-25T15:53:56.247Z,12.69042969
2023-03-25T15:54:56.714Z,12.57965088
2023-03-25T15:55:57.174Z,12.50915527
2023-03-25T15:56:58.209Z,12.25738525
2023-03-25T15:58:28.881Z,12.22717285
2023-03-25T15:59:29.369Z,12.17681885
2023-03-25T16:00:29.825Z,12.15667725
2023-03-25T16:01:30.337Z,12.04589844
2023-03-25T16:02:30.884Z,12.03582764
2023-03-25T16:03:31.229Z,12.02575684
2023-03-25T16:04:31.638Z,11.96533203
2023-03-25T16:05:32.385Z,11.95526123
2023-03-25T16:06:32.839Z,11.96533203
2023-03-25T16:07:33.258Z,11.92504883
2023-03-25T16:08:33.648Z,11.84448242
2023-03-25T16:09:34.107Z,11.79412842
2023-03-25T16:10:34.544Z,11.78405762
2023-03-25T16:11:35.016Z,11.77398682
2023-03-25T16:12:35.519Z,11.77398682
2023-03-25T16:13:35.883Z,11.77398682
2023-03-25T16:14:38.150Z,11.72363281
2023-03-25T16:15:36.825Z,11.72363281
2023-03-25T16:16:37.326Z,11.72363281
2023-03-25T16:17:37.729Z,11.75384521
2023-03-25T16:18:38.130Z,11.72363281
2023-03-25T16:19:38.636Z,11.70349121
2023-03-25T16:20:39.093Z,11.72363281
2023-03-25T16:21:39.530Z,11.75384521
2023-03-25T16:22:39.971Z,11.77398682
2023-03-25T16:23:40.414Z,11.77398682
2023-03-25T16:24:40.891Z,11.79412842
2023-03-25T16:25:41.405Z,11.81427002
2023-03-25T16:26:41.903Z,11.81427002
2023-03-25T16:27:42.574Z,11.82434082
2023-03-25T16:28:43.013Z,11.85455322
2023-03-25T16:29:43.436Z,11.90490723
2023-03-25T16:30:43.922Z,11.87469482
2023-03-25T16:31:44.368Z,11.82434082
2023-03-25T16:32:45.045Z,11.79412842
2023-03-25T16:33:45.338Z,11.79412842
2023-03-25T16:34:45.790Z,11.78405762
2023-03-25T16:35:46.341Z,11.79412842
2023-03-25T16:36:46.773Z,11.75384521
2023-03-25T16:37:47.267Z,11.74377441
2023-03-25T16:38:47.695Z,11.69342041
2023-03-25T16:39:48.190Z,11.69342041
2023-03-25T16:40:48.668Z,11.70349121
2023-03-25T16:41:49.248Z,11.70349121
2023-03-25T16:42:49.767Z,11.70349121
2023-03-25T16:43:50.279Z,11.72363281
2023-03-25T16:44:50.688Z,11.72363281
2023-03-25T16:45:51.148Z,11.72363281
2023-03-25T16:46:51.600Z,11.74377441
2023-03-25T16:47:52.206Z,11.78405762
2023-03-25T16:48:52.497Z,11.81427002
2023-03-25T16:49:52.961Z,11.77398682
2023-03-25T16:50:53.801Z,11.77398682
2023-03-25T16:51:54.289Z,11.70349121
2023-03-25T16:52:56.804Z,11.63299561
2023-03-25T16:53:55.302Z,11.5625
2023-03-25T16:54:55.773Z,11.5423584
2023-03-25T16:55:56.209Z,11.49200439
2023-03-25T16:56:56.683Z,11.46179199
2023-03-25T16:58:27.865Z,11.39129639
2023-03-25T16:59:28.215Z,11.38122559
2023-03-25T17:00:28.741Z,11.39129639
2023-03-25T17:01:29.305Z,11.39129639
2023-03-25T17:02:29.703Z,11.38122559
2023-03-25T17:03:30.230Z,11.39129639
2023-03-25T17:04:30.740Z,11.41143799
2023-03-25T17:05:31.252Z,11.38122559
2023-03-25T17:06:31.741Z,11.31072998
2023-03-25T17:07:32.500Z,11.30065918
2023-03-25T17:08:32.988Z,11.30065918
2023-03-25T17:09:33.398Z,11.27044678
2023-03-25T17:10:33.917Z,11.24023438
2023-03-25T17:11:34.365Z,11.21002197
2023-03-25T17:12:34.776Z,11.19995117
2023-03-25T17:13:35.225Z,11.21002197
2023-03-25T17:14:35.669Z,11.12945557
2023-03-25T17:15:36.162Z,11.15966797
2023-03-25T17:16:36.593Z,11.12945557
2023-03-25T17:17:37.040Z,11.15966797
2023-03-25T17:18:37.508Z,11.12945557
2023-03-25T17:19:37.942Z,11.12945557
2023-03-25T17:20:38.441Z,11.12945557
2023-03-25T17:21:38.899Z,11.12945557
2023-03-25T17:22:39.371Z,11.15966797
2023-03-25T17:23:39.786Z,11.15966797
2023-03-25T17:24:40.211Z,11.19995117
2023-03-25T17:25:40.649Z,11.18988037
2023-03-25T17:26:41.235Z,11.15966797
2023-03-25T17:27:43.469Z,11.18988037
2023-03-25T17:28:42.852Z,11.12945557
2023-03-25T17:29:42.643Z,11.12945557
2023-03-25T17:30:43.175Z,11.11938477
2023-03-25T17:31:43.852Z,11.11938477
2023-03-25T17:32:44.284Z,11.11938477
2023-03-25T17:33:44.765Z,11.12945557
2023-03-25T17:34:45.163Z,11.10931396
2023-03-25T17:35:45.619Z,11.12945557
2023-03-25T17:36:46.135Z,11.10931396
2023-03-25T17:37:46.618Z,11.10931396
2023-03-25T17:38:47.296Z,11.07910156
2023-03-25T17:39:47.604Z,11.08917236
2023-03-25T17:40:48.083Z,11.05895996
2023-03-25T17:41:48.524Z,11.04888916
2023-03-25T17:42:48.992Z,11.05895996
2023-03-25T17:43:49.485Z,11.04888916
2023-03-25T17:44:50.128Z,11.05895996
2023-03-25T17:45:50.608Z,11.05895996
2023-03-25T17:46:51.085Z,11.08917236
2023-03-25T17:47:51.592Z,11.08917236
2023-03-25T17:48:52.016Z,11.08917236
2023-03-25T17:49:52.419Z,11.07910156
2023-03-25T17:50:52.986Z,11.04888916
2023-03-25T17:51:53.302Z,11.05895996
2023-03-25T17:52:53.730Z,11.07910156
2023-03-25T17:53:54.199Z,11.07910156
2023-03-25T17:54:54.665Z,11.08917236
2023-03-25T17:55:55.153Z,11.08917236
2023-03-25T17:56:55.607Z,11.02874756
2023-03-25T17:57:55.996Z,11.00860596
2023-03-25T17:59:26.941Z,10.97839355
2023-03-25T18:00:27.453Z,10.97839355
2023-03-25T18:01:27.959Z,10.98846436
2023-03-25T18:02:28.382Z,10.97839355
2023-03-25T18:03:28.814Z,10.97839355
2023-03-25T18:04:29.342Z,10.93811035
2023-03-25T18:05:29.772Z,10.94818115
2023-03-25T18:06:30.185Z,10.90789795
2023-03-25T18:07:30.603Z,10.93811035
2023-03-25T18:08:31.082Z,10.92803955
2023-03-25T18:09:31.572Z,10.92803955
2023-03-25T18:10:32.048Z,10.89782715
2023-03-25T18:11:32.651Z,10.86761475
2023-03-25T18:12:32.973Z,10.87768555
2023-03-25T18:13:33.403Z,10.87768555
2023-03-25T18:14:33.920Z,10.90789795
2023-03-25T18:15:34.389Z,10.93811035
2023-03-25T18:16:34.981Z,10.94818115
2023-03-25T18:17:35.488Z,10.97839355
2023-03-25T18:18:35.908Z,10.97839355
2023-03-25T18:19:36.313Z,10.97839355
2023-03-25T18:20:36.716Z,10.97839355
2023-03-25T18:21:37.168Z,10.98846436
2023-03-25T18:22:37.627Z,10.94818115
2023-03-25T18:23:38.186Z,10.92803955
2023-03-25T18:24:38.654Z,10.93811035
2023-03-25T18:25:39.053Z,10.94818115
2023-03-25T18:26:39.565Z,10.93811035
2023-03-25T18:27:43.677Z,10.93811035
2023-03-25T18:28:40.500Z,10.94818115
2023-03-25T18:29:41.078Z,10.97839355
2023-03-25T18:30:41.555Z,11.00860596
2023-03-25T18:31:41.960Z,11.01867676
2023-03-25T18:32:42.458Z,11.02874756
2023-03-25T18:33:42.974Z,11.01867676
2023-03-25T18:34:43.602Z,11.01867676
2023-03-25T18:35:44.069Z,11.01867676
2023-03-25T18:36:44.517Z,11.04888916
2023-03-25T18:37:44.965Z,11.07910156
2023-03-25T18:38:45.596Z,11.08917236
2023-03-25T18:39:46.123Z,11.07910156
2023-03-25T18:40:46.494Z,11.05895996
2023-03-25T18:41:46.934Z,11.10931396
2023-03-25T18:42:47.378Z,11.07910156
2023-03-25T18:43:47.863Z,11.07910156
2023-03-25T18:44:50.142Z,11.08917236
2023-03-25T18:45:48.908Z,11.05895996
2023-03-25T18:46:49.283Z,11.04888916
2023-03-25T18:47:49.784Z,11.04888916
2023-03-25T18:48:50.218Z,11.05895996
2023-03-25T18:49:50.764Z,11.08917236
2023-03-25T18:50:51.336Z,11.08917236
2023-03-25T18:51:51.707Z,11.10931396
2023-03-25T18:52:52.136Z,11.12945557
2023-03-25T18:53:52.580Z,11.12945557
2023-03-25T18:54:53.190Z,11.16973877
2023-03-25T18:55:53.612Z,11.18988037
2023-03-25T18:56:54.149Z,11.15966797
2023-03-25T18:57:54.609Z,11.10931396
2023-03-25T18:58:55.046Z,11.05895996
2023-03-25T19:00:26.203Z,11.02874756
2023-03-25T19:01:26.730Z,11.00860596
2023-03-25T19:02:27.407Z,11.00860596
2023-03-25T19:03:27.799Z,10.98846436
2023-03-25T19:04:28.312Z,10.97839355
2023-03-25T19:05:28.879Z,10.94818115
2023-03-25T19:06:29.325Z,10.92803955
2023-03-25T19:07:29.774Z,10.93811035
2023-03-25T19:08:30.227Z,10.94818115
2023-03-25T19:09:30.661Z,10.94818115
2023-03-25T19:10:31.148Z,10.97839355
2023-03-25T19:11:31.590Z,10.94818115
2023-03-25T19:12:32.217Z,10.92803955
2023-03-25T19:13:32.846Z,10.94818115
2023-03-25T19:14:33.312Z,10.94818115
2023-03-25T19:15:33.797Z,10.93811035
2023-03-25T19:16:34.214Z,10.94818115
2023-03-25T19:17:34.742Z,10.97839355
2023-03-25T19:18:35.128Z,10.97839355
2023-03-25T19:19:35.586Z,10.97839355
2023-03-25T19:20:36.135Z,10.97839355
2023-03-25T19:21:36.455Z,10.98846436
2023-03-25T19:22:36.987Z,10.97839355
2023-03-25T19:23:37.586Z,10.94818115
2023-03-25T19:24:38.078Z,10.93811035
2023-03-25T19:25:38.535Z,10.92803955
2023-03-25T19:26:38.981Z,10.90789795
2023-03-25T19:27:39.419Z,10.93811035
2023-03-25T19:28:39.898Z,10.93811035
2023-03-25T19:29:40.400Z,10.93811035
2023-03-25T19:30:40.984Z,10.93811035
2023-03-25T19:31:41.353Z,10.90789795
2023-03-25T19:32:41.853Z,10.92803955
2023-03-25T19:33:42.243Z,10.90789795
2023-03-25T19:34:42.888Z,10.92803955
2023-03-25T19:35:43.489Z,10.92803955
2023-03-25T19:36:43.873Z,10.92803955
2023-03-25T19:37:44.313Z,10.93811035
2023-03-25T19:38:44.760Z,10.97839355
2023-03-25T19:39:45.232Z,10.94818115
2023-03-25T19:40:45.819Z,10.93811035
2023-03-25T19:41:46.222Z,10.97839355
2023-03-25T19:42:46.674Z,10.94818115
2023-03-25T19:43:47.106Z,10.94818115
2023-03-25T19:44:47.553Z,10.93811035
2023-03-25T19:45:48.102Z,10.93811035
2023-03-25T19:46:48.491Z,10.89782715
2023-03-25T19:47:48.947Z,10.87768555
2023-03-25T19:48:49.374Z,10.89782715
2023-03-25T19:49:49.855Z,10.87768555
2023-03-25T19:50:50.520Z,10.87768555
2023-03-25T19:51:50.811Z,10.89782715
2023-03-25T19:52:51.284Z,10.90789795
2023-03-25T19:53:51.806Z,10.89782715
2023-03-25T19:54:52.247Z,10.87768555
2023-03-25T19:55:52.980Z,10.86761475
2023-03-25T19:56:53.392Z,10.85754395
2023-03-25T19:57:53.885Z,10.83740234
2023-03-25T19:58:54.311Z,10.80718994
2023-03-25T20:00:25.521Z,10.83740234
2023-03-25T20:01:26.157Z,10.82733154
2023-03-25T20:02:26.711Z,10.83740234
2023-03-25T20:03:27.148Z,10.82733154
2023-03-25T20:04:27.492Z,10.79711914
2023-03-25T20:05:27.982Z,10.77697754
2023-03-25T20:06:28.507Z,10.75683594
2023-03-25T20:07:28.889Z,10.74676514
2023-03-25T20:08:29.461Z,10.69641113
2023-03-25T20:09:29.938Z,10.74676514
2023-03-25T20:10:30.454Z,10.72662354
2023-03-25T20:11:30.982Z,10.71655273
2023-03-25T20:12:31.601Z,10.74676514
2023-03-25T20:13:32.072Z,10.71655273
2023-03-25T20:14:32.648Z,10.72662354
2023-03-25T20:15:33.147Z,10.71655273
2023-03-25T20:16:33.623Z,10.71655273
2023-03-25T20:17:34.022Z,10.71655273
2023-03-25T20:18:34.483Z,10.68634033